Time;durP1;ratioP1;P1;durP2;ratioP2;P2;SDS_P1;SDS_P2;PMS_P1;PMS_P2;Temp;Humidity;BMP_temperature;BMP_pressure;BME280_temperature;BME280_humidity;BME280_pressure;Samples;Min_cycle;Max_cycle;Signal;HPM_P1;HPM_P2
2022/10/07 00:01:01;;;;;;;16.33;10.43;;;;;;;12.49;80.71;100471.97;5133076;27;20204;-60
2022/10/07 00:03:28;;;;;;;19.03;10.70;;;;;;;12.38;81.85;100475.69;5132893;27;20212;-54
2022/10/07 00:06:06;;;;;;;20.90;10.73;;;;;;;12.32;83.12;100472.31;5133035;27;20587;-53
2022/10/07 00:08:36;;;;;;;19.07;11.10;;;;;;;12.18;84.29;100474.34;5132664;27;20204;-53
2022/10/07 00:11:08;;;;;;;12.87;9.97;;;;;;;12.06;85.09;100447.72;5133034;27;20581;-54
2022/10/07 00:13:37;;;;;;;22.07;11.03;;;;;;;11.97;84.78;100440.91;5132601;27;20224;-54
2022/10/07 00:16:08;;;;;;;23.30;10.33;;;;;;;12.06;84.71;100463.31;5131718;27;20182;-53
2022/10/07 00:18:35;;;;;;;15.77;9.97;;;;;;;12.09;84.98;100466.69;5132545;27;20200;-54
2022/10/07 00:21:04;;;;;;;22.83;9.83;;;;;;;12.07;85.16;100473.72;5132956;27;20649;-59
2022/10/07 00:23:31;;;;;;;18.43;9.53;;;;;;;12.03;85.18;100473.78;5132600;27;20208;-59
2022/10/07 00:26:02;;;;;;;11.03;8.00;;;;;;;12.03;85.59;100472.03;5132429;27;20204;-54
2022/10/07 00:28:29;;;;;;;20.07;8.37;;;;;;;11.97;85.54;100472.16;5132433;27;20290;-53
2022/10/07 00:31:00;;;;;;;8.97;7.90;;;;;;;11.83;86.21;100464.63;5132447;27;20197;-53
2022/10/07 00:33:30;;;;;;;11.23;8.17;;;;;;;11.89;86.74;100480.09;5132233;27;20213;-53
2022/10/07 00:35:57;;;;;;;14.43;7.87;;;;;;;11.86;87.60;100485.34;5132371;27;20532;-53
2022/10/07 00:38:24;;;;;;;13.27;7.93;;;;;;;11.98;86.50;100489.47;5131961;27;20231;-54
2022/10/07 00:40:51;;;;;;;11.73;7.70;;;;;;;12.06;86.44;100484.13;5132171;27;20280;-52
2022/10/07 00:43:23;;;;;;;10.07;7.93;;;;;;;11.97;86.87;100475.59;5132074;27;20194;-60
2022/10/07 00:45:51;;;;;;;16.93;9.53;;;;;;;11.89;88.42;100480.09;5132379;27;20204;-54
2022/10/07 00:48:23;;;;;;;14.20;8.70;;;;;;;11.81;89.26;100471.59;5132052;27;20190;-53
2022/10/07 00:50:53;;;;;;;14.43;8.57;;;;;;;11.75;89.58;100471.69;5132152;27;20580;-53
2022/10/07 00:53:22;;;;;;;8.70;7.70;;;;;;;11.72;90.02;100468.28;5131916;27;20616;-53
2022/10/07 00:55:49;;;;;;;11.80;8.33;;;;;;;11.66;91.03;100471.81;5132156;27;20576;-59
2022/10/07 00:58:18;;;;;;;11.47;9.13;;;;;;;11.68;92.32;100477.00;5131836;27;20194;-58
2022/10/07 01:00:45;;;;;;;16.90;9.20;;;;;;;11.59;93.84;100471.09;5130725;27;20202;-59
2022/10/07 01:03:11;;;;;;;13.47;8.83;;;;;;;11.59;93.81;100463.28;5131958;27;20208;-53
2022/10/07 01:05:38;;;;;;;9.93;8.47;;;;;;;11.66;94.11;100469.22;5131950;27;20200;-53
2022/10/07 01:08:07;;;;;;;13.13;8.83;;;;;;;11.75;93.41;100470.78;5131741;27;20201;-53
2022/10/07 01:10:52;;;;;;;15.23;9.17;;;;;;;11.72;92.42;100465.69;5131734;27;20264;-53
2022/10/07 01:13:27;;;;;;;21.13;9.17;;;;;;;11.70;92.81;100467.44;5131585;27;20225;-53
2022/10/07 01:16:02;;;;;;;14.83;9.00;;;;;;;11.57;93.14;100451.19;5131492;27;20228;-53
2022/10/07 01:18:36;;;;;;;11.13;8.80;;;;;;;11.72;92.60;100468.28;5131296;27;20205;-54
2022/10/07 01:21:08;;;;;;;16.33;9.13;;;;;;;11.61;92.28;100468.47;5131609;27;20190;-53
2022/10/07 01:23:55;;;;;;;14.30;8.47;;;;;;;11.59;92.46;100463.28;5131381;27;20190;-52
2022/10/07 01:26:43;;;;;;;14.43;8.30;;;;;;;11.52;93.25;100464.25;5131199;27;20194;-53
2022/10/07 01:29:14;;;;;;;13.13;8.87;;;;;;;11.43;93.40;100454.03;5131125;27;20265;-59
2022/10/07 01:31:46;;;;;;;11.13;8.33;;;;;;;11.48;93.07;100461.75;5131171;27;20194;-59
2022/10/07 01:34:15;;;;;;;9.33;7.87;;;;;;;11.43;93.23;100448.84;5131183;27;20217;-54
2022/10/07 01:36:50;;;;;;;13.00;8.30;;;;;;;11.61;93.16;100466.72;5131194;27;20584;-53
2022/10/07 01:39:21;;;;;;;10.93;8.00;;;;;;;11.54;93.82;100461.63;5131063;27;20186;-53
2022/10/07 01:41:51;;;;;;;12.13;8.27;;;;;;;11.52;93.89;100447.81;5131007;27;20198;-61
2022/10/07 01:44:18;;;;;;;10.90;8.17;;;;;;;11.53;93.69;100447.78;5130959;27;20190;-59
2022/10/07 01:46:46;;;;;;;13.77;7.97;;;;;;;11.48;93.61;100448.75;5130634;27;20203;-59
2022/10/07 01:49:13;;;;;;;17.20;8.43;;;;;;;11.33;94.48;100434.28;5130857;27;20221;-52
2022/10/07 01:51:42;;;;;;;12.30;8.23;;;;;;;11.39;95.25;100446.34;5130797;27;20224;-53
2022/10/07 01:54:25;;;;;;;13.60;8.57;;;;;;;11.37;94.74;100446.34;5130821;27;20225;-53
2022/10/07 01:57:08;;;;;;;14.00;8.77;;;;;;;11.30;94.33;100447.31;5130773;27;20197;-57
2022/10/07 01:59:56;;;;;;;14.73;8.40;;;;;;;11.18;94.87;100455.31;5131165;27;20197;-53
2022/10/07 02:02:31;;;;;;;17.93;8.87;;;;;;;11.11;94.91;100451.97;5130563;27;20200;-54
2022/10/07 02:05:10;;;;;;;11.47;9.27;;;;;;;11.13;94.06;100459.75;5130740;27;20204;-57
2022/10/07 02:07:44;;;;;;;13.30;9.03;;;;;;;11.14;93.62;100457.13;5130667;27;20190;-54
2022/10/07 02:10:20;;;;;;;19.27;9.47;;;;;;;11.09;93.25;100448.53;5130303;27;20197;-53
2022/10/07 02:12:56;;;;;;;13.13;8.57;;;;;;;11.06;93.85;100464.16;5130206;27;20192;-53
2022/10/07 02:15:27;;;;;;;11.20;8.37;;;;;;;10.93;94.24;100460.06;5130743;27;20559;-53
2022/10/07 02:17:58;;;;;;;10.10;7.80;;;;;;;10.96;94.10;100460.00;5130353;27;20212;-54
2022/10/07 02:20:30;;;;;;;15.80;8.43;;;;;;;10.78;94.14;100432.56;5130361;27;20559;-53
2022/10/07 02:22:59;;;;;;;12.80;8.27;;;;;;;10.96;94.25;100448.75;5130574;27;20193;-59
2022/10/07 02:25:32;;;;;;;13.77;8.47;;;;;;;10.89;94.98;100443.66;5130154;27;20198;-60
2022/10/07 02:28:04;;;;;;;9.43;7.83;;;;;;;10.84;95.60;100448.06;5130197;27;20193;-53
2022/10/07 02:30:33;;;;;;;15.40;8.40;;;;;;;10.86;95.44;100451.50;5130039;27;20234;-59
2022/10/07 02:33:03;;;;;;;13.97;8.67;;;;;;;10.92;94.91;100455.75;5130244;27;20281;-58
2022/10/07 02:35:37;;;;;;;10.70;8.30;;;;;;;10.95;94.43;100447.06;5130097;28;20243;-59
2022/10/07 02:38:09;;;;;;;16.60;8.87;;;;;;;10.91;94.87;100452.28;5130090;28;20194;-60
2022/10/07 02:40:42;;;;;;;13.87;8.43;;;;;;;10.84;94.50;100442.84;5130161;28;20599;-59
2022/10/07 02:43:15;;;;;;;12.87;8.03;;;;;;;10.73;95.00;100431.78;5130284;28;20201;-58
2022/10/07 02:45:48;;;;;;;9.67;7.13;;;;;;;10.80;94.35;100448.13;5130233;28;20262;-53
2022/10/07 02:48:20;;;;;;;14.17;7.60;;;;;;;10.83;94.12;100443.78;5129988;28;20674;-60
2022/10/07 02:50:51;;;;;;;12.07;7.73;;;;;;;10.84;93.60;100450.66;5130337;28;20194;-59
2022/10/07 02:53:21;;;;;;;9.73;6.57;;;;;;;10.83;92.78;100451.56;5130123;28;20190;-53
2022/10/07 02:55:50;;;;;;;15.20;8.00;;;;;;;10.83;92.93;100448.97;5130095;28;20198;-56
2022/10/07 02:58:20;;;;;;;12.77;7.00;;;;;;;10.86;92.17;100448.91;5129962;28;20204;-59
2022/10/07 03:00:51;;;;;;;9.67;6.97;;;;;;;10.93;91.51;100448.81;5129640;28;20285;-59
2022/10/07 03:03:19;;;;;;;8.47;5.50;;;;;;;10.80;91.18;100441.22;5130072;28;20194;-59
2022/10/07 03:05:48;;;;;;;7.57;5.40;;;;;;;10.90;90.67;100457.50;5129809;28;20198;-54
2022/10/07 03:08:15;;;;;;;8.77;5.90;;;;;;;10.94;90.27;100458.34;5130139;28;20270;-60
2022/10/07 03:10:42;;;;;;;8.37;5.60;;;;;;;11.00;89.66;100461.69;5129938;28;20200;-61
2022/10/07 03:13:09;;;;;;;9.80;6.30;;;;;;;10.94;89.55;100463.53;5129864;28;20296;-61
2022/10/07 03:15:39;;;;;;;9.00;5.63;;;;;;;10.95;90.02;100463.47;5129812;28;20221;-53
2022/10/07 03:18:06;;;;;;;9.10;5.40;;;;;;;10.94;89.44;100472.19;5129958;28;20685;-53
2022/10/07 03:20:34;;;;;;;8.43;5.53;;;;;;;10.96;88.54;100457.41;5129743;28;20193;-53
2022/10/07 03:23:00;;;;;;;7.27;5.80;;;;;;;11.03;88.75;100468.56;5131318;27;20236;-53
2022/10/07 03:25:28;;;;;;;7.57;5.67;;;;;;;11.02;88.07;100466.84;5133551;27;20186;-59
2022/10/07 03:27:55;;;;;;;8.53;5.50;;;;;;;11.05;88.16;100469.41;5133342;27;20198;-61
2022/10/07 03:30:22;;;;;;;6.27;5.67;;;;;;;10.96;88.92;100469.53;5133346;27;20229;-61
2022/10/07 03:32:51;;;;;;;11.03;5.80;;;;;;;10.89;88.47;100456.66;5133560;27;20208;-60
2022/10/07 03:35:18;;;;;;;12.83;5.97;;;;;;;10.94;89.17;100463.53;5133743;27;20221;-60
2022/10/07 03:37:45;;;;;;;6.07;4.90;;;;;;;10.94;88.70;100459.19;5133529;27;20208;-61
2022/10/07 03:40:11;;;;;;;8.10;5.27;;;;;;;11.02;88.38;100461.66;5116781;27;20221;-61
2022/10/07 03:42:39;;;;;;;10.40;5.70;;;;;;;11.06;87.76;100458.16;5131568;27;20602;-54
2022/10/07 03:45:06;;;;;;;5.47;4.90;;;;;;;11.04;87.62;100465.09;5131890;27;20596;-52
2022/10/07 03:47:34;;;;;;;6.90;5.40;;;;;;;10.86;87.58;100451.50;5128724;27;20205;-54
2022/10/07 03:50:03;;;;;;;6.03;4.97;;;;;;;10.83;88.80;100461.94;5130955;27;20219;-62
2022/10/07 03:52:30;;;;;;;6.13;4.90;;;;;;;10.94;87.44;100458.34;5131633;27;20226;-53
2022/10/07 03:54:57;;;;;;;5.50;4.80;;;;;;;10.94;87.90;100459.19;5132720;27;20701;-53
2022/10/07 04:00:09;;;;;;;9.60;5.00;;;;;;;10.98;87.09;100455.66;5131793;27;20235;-60
2022/10/07 04:02:36;;;;;;;4.73;4.27;;;;;;;10.96;86.69;100462.59;5139274;27;20228;-60
2022/10/07 04:05:05;;;;;;;4.80;4.50;;;;;;;10.97;86.64;100459.13;5141013;27;20220;-59
2022/10/07 04:07:32;;;;;;;4.33;3.90;;;;;;;10.97;86.04;100468.66;5142260;27;20225;-60
2022/10/07 04:09:59;;;;;;;4.43;4.03;;;;;;;10.93;85.88;100470.47;5132767;27;20253;-60
2022/10/07 04:12:25;;;;;;;5.80;4.37;;;;;;;10.84;86.56;100473.16;5131991;27;20220;-52
2022/10/07 04:14:52;;;;;;;9.68;4.20;;;;;;;10.78;87.02;100468.06;5131875;27;20477;-53
2022/10/07 04:17:20;;;;;;;5.60;4.87;;;;;;;10.73;87.35;100470.72;5131394;27;20225;-53
2022/10/07 04:19:47;;;;;;;7.70;4.67;;;;;;;10.75;87.03;100473.31;5132062;27;20671;-59
2022/10/07 04:22:15;;;;;;;5.30;4.40;;;;;;;10.70;87.36;100470.78;5133411;27;20596;-58
2022/10/07 04:24:42;;;;;;;5.27;4.57;;;;;;;10.67;88.02;100472.56;5132786;27;20214;-59
2022/10/07 04:27:10;;;;;;;7.40;4.40;;;;;;;10.66;88.01;100478.63;5132443;27;20631;-54
2022/10/07 04:29:37;;;;;;;12.20;4.27;;;;;;;10.68;88.12;100469.94;5131286;27;20238;-53
2022/10/07 04:32:04;;;;;;;10.70;4.00;;;;;;;10.67;88.34;100483.81;5131791;27;20225;-57
2022/10/07 04:34:31;;;;;;;11.37;4.63;;;;;;;10.63;88.98;100478.66;5130450;27;20265;-59
2022/10/07 04:36:59;;;;;;;5.57;4.77;;;;;;;10.61;89.18;100476.09;5132006;27;20221;-53
2022/10/07 04:39:28;;;;;;;7.73;4.87;;;;;;;10.58;89.71;100476.16;5131361;27;20229;-54
2022/10/07 04:41:55;;;;;;;8.00;4.87;;;;;;;10.57;90.27;100478.75;5131357;27;20233;-57
2022/10/07 04:44:22;;;;;;;6.73;5.07;;;;;;;10.44;91.08;100485.84;5131134;27;20612;-53
2022/10/07 04:46:48;;;;;;;8.03;4.57;;;;;;;10.36;90.40;100470.38;5131434;27;20193;-54
2022/10/07 04:49:15;;;;;;;11.37;4.67;;;;;;;10.40;90.81;100485.00;5131249;27;20194;-52
2022/10/07 04:51:42;;;;;;;9.77;4.90;;;;;;;10.41;90.71;100485.88;5131763;27;20201;-57
2022/10/07 04:54:09;;;;;;;7.00;5.03;;;;;;;10.41;91.00;100485.88;5131866;27;20202;-52
2022/10/07 04:56:37;;;;;;;6.17;4.70;;;;;;;10.38;90.73;100483.34;5131710;27;20194;-53
2022/10/07 04:59:05;;;;;;;8.70;4.80;;;;;;;10.44;90.21;100488.44;5131778;27;20583;-52
2022/10/07 05:01:32;;;;;;;7.37;4.77;;;;;;;10.44;90.68;100501.41;5131485;27;20190;-59
2022/10/07 05:03:59;;;;;;;5.00;4.47;;;;;;;10.33;90.47;100480.78;5132176;27;20201;-58
2022/10/07 05:06:26;;;;;;;14.43;5.43;;;;;;;10.43;90.08;100486.72;5131834;27;20558;-52
2022/10/07 05:08:53;;;;;;;11.43;6.60;;;;;;;10.43;90.06;100497.97;5131583;27;20196;-52
2022/10/07 05:11:20;;;;;;;7.00;5.23;;;;;;;10.48;89.94;100501.38;5131867;27;20632;-58
2022/10/07 05:13:48;;;;;;;6.97;5.07;;;;;;;10.58;89.21;100499.53;5131384;27;20198;-58
2022/10/07 05:16:15;;;;;;;8.80;5.07;;;;;;;10.65;88.62;100506.34;5131279;27;20214;-52
2022/10/07 05:18:42;;;;;;;10.13;4.70;;;;;;;10.85;88.00;100506.06;5131285;27;20204;-52
2022/10/07 05:21:09;;;;;;;10.97;5.60;;;;;;;11.23;85.96;100502.91;5131645;27;20940;-54
2022/10/07 05:23:36;;;;;;;11.07;4.87;;;;;;;12.15;81.13;100513.44;5131490;27;20198;-53
2022/10/07 05:26:06;;;;;;;5.33;4.40;;;;;;;13.62;73.62;100517.13;5131666;27;20739;-53
2022/10/07 05:28:33;;;;;;;5.43;4.00;;;;;;;15.19;64.51;100510.91;5131039;27;20229;-52
2022/10/07 05:31:07;;;;;;;6.47;5.13;;;;;;;16.52;58.06;100512.41;5131090;27;20208;-53
2022/10/07 05:33:34;;;;;;;5.10;4.70;;;;;;;17.69;53.59;100533.19;5130897;27;20231;-53
2022/10/07 05:36:02;;;;;;;6.23;4.90;;;;;;;18.61;49.88;100512.53;5131004;27;20213;-58
2022/10/07 05:38:29;;;;;;;7.77;4.97;;;;;;;19.24;47.83;100534.06;5130801;27;20198;-59
2022/10/07 05:40:58;;;;;;;5.60;4.63;;;;;;;19.90;46.25;100537.81;5130994;27;20194;-52
2022/10/07 05:43:26;;;;;;;5.20;4.45;;;;;;;21.26;43.45;100536.66;5131016;27;20221;-53
2022/10/07 05:46:01;;;;;;;8.00;5.10;;;;;;;22.87;39.56;100544.66;5130406;27;20204;-53
2022/10/07 05:48:30;;;;;;;6.82;4.53;;;;;;;23.25;38.26;100536.88;5130716;27;20246;-53
2022/10/07 05:50:58;;;;;;;6.70;4.60;;;;;;;24.24;36.20;100543.53;5130806;27;20190;-56
2022/10/07 05:53:26;;;;;;;5.40;4.47;;;;;;;25.21;34.85;100541.88;5130979;27;20207;-52
2022/10/07 05:55:53;;;;;;;5.25;4.85;;;;;;;26.25;33.00;100545.53;5130683;27;20605;-54
2022/10/07 05:58:20;;;;;;;19.08;16.85;;;;;;;27.04;31.28;100541.09;5130709;27;20190;-54
2022/10/07 06:00:52;;;;;;;18.27;15.18;;;;;;;27.30;31.25;100539.81;5130697;27;20595;-59
2022/10/07 06:03:19;;;;;;;6.03;5.53;;;;;;;27.19;30.96;100549.66;5130743;27;20197;-54
2022/10/07 06:05:49;;;;;;;5.03;4.72;;;;;;;27.80;30.42;100551.63;5130437;27;20197;-53
2022/10/07 06:08:17;;;;;;;6.45;4.97;;;;;;;28.58;28.77;100560.97;5130607;27;20673;-59
2022/10/07 06:13:28;;;;;;;6.53;4.45;;;;;;;28.70;28.77;100546.53;5130432;27;20193;-55
2022/10/07 06:16:01;;;;;;;4.93;4.55;;;;;;;29.31;27.85;100543.75;5130426;27;20270;-54
2022/10/07 06:18:28;;;;;;;7.45;4.70;;;;;;;30.48;27.08;100550.69;5130368;27;20194;-60
2022/10/07 06:20:57;;;;;;;5.60;4.57;;;;;;;31.43;25.99;100559.25;5130424;27;20696;-60
2022/10/07 06:23:24;;;;;;;8.43;4.30;;;;;;;31.51;25.29;100555.78;5130656;27;20240;-58
2022/10/07 06:25:56;;;;;;;10.05;4.30;;;;;;;31.60;25.15;100549.53;5130148;27;20225;-59
2022/10/07 06:28:23;;;;;;;8.52;4.07;;;;;;;32.30;24.53;100551.28;5130060;27;20204;-59
2022/10/07 06:30:50;;;;;;;5.55;4.07;;;;;;;32.99;23.72;100552.13;5130101;27;20560;-59
2022/10/07 06:33:18;;;;;;;6.18;3.90;;;;;;;32.71;23.52;100554.22;5130159;27;20206;-55
2022/10/07 06:35:45;;;;;;;11.13;4.03;;;;;;;32.72;23.74;100555.91;5130073;28;20215;-59
2022/10/07 06:38:13;;;;;;;22.73;17.08;;;;;;;33.04;23.44;100522.88;5130154;28;20189;-59
2022/10/07 06:40:40;;;;;;;23.63;15.38;;;;;;;33.38;22.97;100552.41;5129936;28;20668;-54
2022/10/07 06:43:07;;;;;;;19.98;13.65;;;;;;;34.16;22.21;100563.56;5128715;28;20598;-54
2022/10/07 06:45:34;;;;;;;18.08;12.25;;;;;;;34.57;22.18;100553.53;5128717;28;20197;-55
2022/10/07 06:48:01;;;;;;;14.75;7.25;;;;;;;34.91;21.44;100562.19;5109665;28;20199;-59
2022/10/07 06:50:28;;;;;;;9.27;7.55;;;;;;;34.60;21.92;100559.41;5129382;28;20206;-53
2022/10/07 06:52:55;;;;;;;12.05;6.60;;;;;;;35.06;21.74;100561.44;5129940;28;20200;-53
2022/10/07 06:55:25;;;;;;;15.70;7.00;;;;;;;35.25;21.22;100551.06;5129284;28;20218;-54
2022/10/07 06:57:52;;;;;;;22.48;17.58;;;;;;;35.50;20.78;100556.28;5131623;27;20185;-53
2022/10/07 07:00:19;;;;;;;40.90;28.17;;;;;;;35.53;20.99;100553.22;5132249;27;20195;-53
2022/10/07 07:02:46;;;;;;;28.88;13.45;;;;;;;35.04;21.20;100553.50;5131126;27;20193;-54
2022/10/07 07:05:14;;;;;;;16.20;10.65;;;;;;;32.76;23.24;100544.66;5133938;27;20192;-54
2022/10/07 07:07:41;;;;;;;16.58;8.60;;;;;;;30.52;25.12;100549.41;5133748;27;20205;-52
2022/10/07 07:10:09;;;;;;;27.02;16.15;;;;;;;28.53;27.50;100542.69;5133975;27;20223;-53
2022/10/07 07:12:37;;;;;;;30.85;14.25;;;;;;;26.64;29.95;100541.56;5133859;27;20228;-52
2022/10/07 07:15:05;;;;;;;25.75;14.73;;;;;;;25.24;32.07;100539.00;5133544;27;20232;-53
2022/10/07 07:17:32;;;;;;;17.33;8.02;;;;;;;24.27;33.66;100535.34;5133819;27;20220;-53
2022/10/07 07:19:59;;;;;;;11.30;5.40;;;;;;;23.51;35.12;100528.09;5133750;27;20594;-53
2022/10/07 07:22:25;;;;;;;13.18;6.95;;;;;;;22.94;36.52;100530.06;5133718;27;20224;-59
2022/10/07 07:24:53;;;;;;;13.45;7.07;;;;;;;22.30;37.87;100520.84;5133572;27;20202;-58
2022/10/07 07:27:20;;;;;;;5.47;5.07;;;;;;;22.20;38.51;100519.69;5133501;27;20198;-58
2022/10/07 07:29:49;;;;;;;7.22;4.20;;;;;;;21.81;39.19;100519.41;5133088;27;20261;-58
2022/10/07 07:32:16;;;;;;;7.72;4.07;;;;;;;21.47;40.31;100500.25;5133421;27;20194;-58
2022/10/07 07:34:44;;;;;;;6.90;4.20;;;;;;;21.15;41.45;100493.28;5133288;27;20335;-58
2022/10/07 07:37:11;;;;;;;5.95;4.45;;;;;;;21.16;41.69;100502.91;5133454;27;20209;-58
2022/10/07 07:39:38;;;;;;;7.57;4.78;;;;;;;21.02;42.14;100514.25;5133170;27;20198;-58
2022/10/07 07:42:05;;;;;;;7.55;4.78;;;;;;;20.89;42.46;100497.38;5133191;27;20221;-54
2022/10/07 07:44:32;;;;;;;6.18;5.13;;;;;;;20.66;44.05;100506.56;5133219;27;20201;-58
2022/10/07 07:47:00;;;;;;;9.15;6.55;;;;;;;20.42;44.50;100502.66;5133281;27;20190;-58
2022/10/07 07:49:30;;;;;;;7.72;4.68;;;;;;;20.25;44.62;100501.72;5133160;27;20221;-59
2022/10/07 07:51:57;;;;;;;8.70;4.97;;;;;;;20.11;45.20;100474.38;5133206;27;20285;-58
2022/10/07 07:54:26;;;;;;;12.05;6.95;;;;;;;20.19;45.34;100496.78;5133206;27;20583;-58
2022/10/07 07:56:53;;;;;;;9.50;7.20;;;;;;;20.16;45.18;100491.66;5133252;27;20592;-58
2022/10/07 07:59:20;;;;;;;6.88;5.22;;;;;;;20.04;46.62;100492.31;5133093;27;20656;-58
2022/10/07 08:01:47;;;;;;;6.43;5.18;;;;;;;20.22;46.05;100496.59;5132854;27;20722;-59
2022/10/07 08:04:16;;;;;;;8.32;4.63;;;;;;;20.00;46.55;100490.75;5132791;27;20202;-58
2022/10/07 08:06:43;;;;;;;7.25;4.20;;;;;;;20.02;45.86;100494.16;5132739;27;20222;-59
2022/10/07 08:09:11;;;;;;;12.82;4.85;;;;;;;20.10;45.92;100489.34;5131748;27;20198;-58
2022/10/07 08:11:38;;;;;;;9.82;5.50;;;;;;;20.19;45.72;100491.50;5132391;27;20194;-58
2022/10/07 08:14:06;;;;;;;7.65;4.53;;;;;;;20.03;46.06;100485.31;5132690;27;20194;-58
2022/10/07 08:16:35;;;;;;;6.10;5.22;;;;;;;20.09;46.40;100484.16;5132344;27;20217;-59
2022/10/07 08:19:02;;;;;;;9.77;4.97;;;;;;;20.23;46.07;100493.03;5132807;27;20190;-52
2022/10/07 08:21:32;;;;;;;4.95;4.55;;;;;;;20.21;45.64;100467.66;5132303;27;20293;-53
2022/10/07 08:24:01;;;;;;;8.05;4.53;;;;;;;20.21;45.53;100484.34;5132306;27;20259;-52
2022/10/07 08:26:29;;;;;;;7.85;4.40;;;;;;;20.25;45.79;100477.13;5132382;27;20209;-52
2022/10/07 08:28:56;;;;;;;8.50;4.70;;;;;;;20.33;45.56;100471.44;5132111;27;20240;-59
2022/10/07 08:31:26;;;;;;;15.50;5.75;;;;;;;20.27;45.38;100475.28;5132277;27;20194;-58
2022/10/07 08:33:55;;;;;;;10.10;4.82;;;;;;;20.26;45.87;100471.78;5132180;27;20225;-59
2022/10/07 08:36:24;;;;;;;9.75;4.45;;;;;;;20.40;45.02;100465.81;5132018;27;20309;-59
2022/10/07 08:38:53;;;;;;;8.50;3.55;;;;;;;20.43;45.14;100467.44;5132170;27;20212;-58
2022/10/07 08:41:31;;;;;;;7.60;4.53;;;;;;;20.53;44.71;100466.00;5132062;27;20198;-59
2022/10/07 08:44:06;;;;;;;3.88;3.38;;;;;;;20.42;43.72;100463.09;5132073;27;20241;-58
2022/10/07 08:46:35;;;;;;;5.50;3.88;;;;;;;20.28;43.99;100426.88;5132185;27;20200;-55
2022/10/07 08:49:08;;;;;;;3.83;3.53;;;;;;;20.57;45.04;100449.91;5131956;27;20624;-53
2022/10/07 08:51:40;;;;;;;5.82;4.03;;;;;;;20.67;44.55;100451.09;5132174;27;20224;-53
2022/10/07 08:54:13;;;;;;;4.88;3.45;;;;;;;20.53;44.75;100456.28;5132171;27;20276;-53
2022/10/07 08:56:42;;;;;;;3.90;3.38;;;;;;;20.53;44.70;100448.38;5131644;27;20218;-54
2022/10/07 08:59:19;;;;;;;8.13;3.50;;;;;;;20.36;44.44;100443.16;5131882;27;20189;-54
2022/10/07 09:01:57;;;;;;;6.15;3.35;;;;;;;20.31;44.23;100442.56;5131791;27;20713;-53
2022/10/07 09:04:41;;;;;;;5.32;2.85;;;;;;;20.33;43.78;100439.81;5131719;27;20197;-53
2022/10/07 09:07:12;;;;;;;3.92;3.28;;;;;;;20.45;43.26;100441.81;5111292;28;20190;-53
2022/10/07 09:09:43;;;;;;;3.70;2.95;;;;;;;20.48;43.63;100437.22;5110974;28;20700;-53
2022/10/07 09:12:20;;;;;;;2.80;2.60;;;;;;;20.59;42.96;100426.94;5110993;28;20194;-53
2022/10/07 09:14:50;;;;;;;5.07;3.28;;;;;;;20.65;42.14;100429.22;5110962;28;20689;-58
2022/10/07 09:17:22;;;;;;;3.50;3.20;;;;;;;20.73;42.13;100420.03;5110953;28;20218;-59
2022/10/07 09:19:54;;;;;;;3.85;3.53;;;;;;;20.64;42.20;100418.78;5110121;28;20260;-58
2022/10/07 09:22:25;;;;;;;2.97;2.88;;;;;;;20.61;41.82;100411.88;5110636;28;20643;-58
2022/10/07 09:25:17;;;;;;;3.20;2.90;;;;;;;20.60;41.91;100406.69;5110581;28;20203;-60
2022/10/07 09:27:44;;;;;;;4.00;3.35;;;;;;;20.65;42.01;100404.66;5110613;28;20190;-58
2022/10/07 09:30:13;;;;;;;5.78;2.70;;;;;;;20.74;42.04;100398.84;5110688;28;20235;-60
2022/10/07 09:32:43;;;;;;;6.13;4.85;;;;;;;20.50;42.67;100387.88;5110482;28;20189;-59
2022/10/07 09:35:13;;;;;;;4.13;3.80;;;;;;;20.51;42.06;100394.00;5110607;28;20194;-59
2022/10/07 09:37:56;;;;;;;7.00;3.63;;;;;;;20.64;42.58;100384.47;5110667;28;20318;-60
2022/10/07 09:40:33;;;;;;;6.38;4.53;;;;;;;20.79;42.17;100391.50;5110557;28;20197;-60
2022/10/07 09:43:00;;;;;;;5.85;3.55;;;;;;;20.83;42.76;100376.34;5110302;28;20194;-60
2022/10/07 09:45:30;;;;;;;4.90;4.50;;;;;;;20.94;43.01;100371.31;5110399;28;20198;-59
2022/10/07 09:48:06;;;;;;;6.25;4.03;;;;;;;21.02;42.84;100369.06;5110562;28;20635;-60
2022/10/07 09:50:37;;;;;;;2.97;2.72;;;;;;;21.20;40.53;100367.19;5110144;28;20233;-58
2022/10/07 09:53:05;;;;;;;4.05;3.20;;;;;;;21.33;40.06;100361.06;5110239;28;20701;-59
2022/10/07 09:55:40;;;;;;;7.70;4.63;;;;;;;21.45;40.15;100359.47;5109978;28;20560;-61
2022/10/07 09:58:17;;;;;;;4.28;3.20;;;;;;;21.45;39.98;100359.47;5110209;28;20201;-59
2022/10/07 10:00:46;;;;;;;3.22;2.78;;;;;;;21.43;40.02;100355.25;5109946;28;20206;-60
2022/10/07 10:03:13;;;;;;;4.45;3.28;;;;;;;21.50;39.89;100352.13;5110185;28;20194;-59
2022/10/07 10:05:50;;;;;;;5.15;4.28;;;;;;;21.58;39.92;100346.38;5110149;28;20582;-59
2022/10/07 10:08:24;;;;;;;2.80;2.60;;;;;;;21.47;39.75;100347.03;5110311;28;20206;-59
2022/10/07 10:10:54;;;;;;;3.13;2.42;;;;;;;21.45;39.23;100348.91;5109811;28;20197;-59
2022/10/07 10:13:31;;;;;;;7.75;3.05;;;;;;;21.40;39.24;100340.44;5109975;28;20201;-59
2022/10/07 10:15:58;;;;;;;2.60;2.40;;;;;;;21.48;39.87;100332.03;5109853;28;20228;-59
2022/10/07 10:18:35;;;;;;;3.40;2.58;;;;;;;21.49;39.28;100312.59;5109788;28;20230;-59
2022/10/07 10:21:28;;;;;;;8.32;2.47;;;;;;;21.65;38.88;100319.50;5109792;28;20190;-59
2022/10/07 10:23:57;;;;;;;5.10;3.63;;;;;;;21.72;39.47;100307.59;5106724;28;20191;-59
2022/10/07 10:26:40;;;;;;;2.95;2.75;;;;;;;21.61;38.57;100306.56;5109752;28;20195;-59
2022/10/07 10:29:28;;;;;;;3.08;2.83;;;;;;;21.70;38.55;100301.56;5109676;28;20609;-59
2022/10/07 10:32:26;;;;;;;6.20;3.25;;;;;;;21.75;38.25;100303.94;5109391;28;20693;-60
2022/10/07 10:35:02;;;;;;;3.08;2.78;;;;;;;21.89;38.14;100293.34;5109462;28;20195;-60
2022/10/07 10:37:43;;;;;;;4.32;2.70;;;;;;;21.95;37.69;100294.75;5115331;28;20236;-59
2022/10/07 10:40:21;;;;;;;3.90;2.90;;;;;;;22.04;37.67;100286.25;5123720;28;20221;-60
2022/10/07 10:42:59;;;;;;;5.50;3.00;;;;;;;22.01;37.36;100282.00;5130008;28;20196;-53
2022/10/07 10:45:35;;;;;;;4.30;3.90;;;;;;;21.97;37.63;100277.00;5129939;28;20189;-53
2022/10/07 10:48:27;;;;;;;6.30;4.60;;;;;;;22.03;37.89;100280.09;5130307;28;20189;-54
2022/10/07 10:51:01;;;;;;;3.70;2.22;;;;;;;22.02;36.39;100267.84;5129943;28;20563;-53
2022/10/07 10:53:41;;;;;;;2.78;2.58;;;;;;;22.02;36.40;100261.69;5130458;28;20194;-53
2022/10/07 10:56:19;;;;;;;2.72;2.53;;;;;;;22.03;37.61;100255.47;5129667;28;20221;-59
2022/10/07 10:59:08;;;;;;;2.75;2.53;;;;;;;22.04;37.36;100246.59;5129961;28;20193;-59
2022/10/07 11:01:37;;;;;;;3.17;2.75;;;;;;;21.98;37.15;100246.97;5129723;28;20208;-60
2022/10/07 11:04:20;;;;;;;4.35;2.88;;;;;;;21.95;37.34;100248.00;5129840;28;20198;-53
2022/10/07 11:06:53;;;;;;;6.13;3.60;;;;;;;21.83;38.03;100211.78;5129818;28;20284;-53
2022/10/07 11:09:31;;;;;;;5.13;3.20;;;;;;;21.96;37.30;100240.94;5129566;28;20198;-52
2022/10/07 11:12:03;;;;;;;7.45;4.80;;;;;;;21.85;36.94;100244.25;5129721;28;20190;-52
2022/10/07 11:14:36;;;;;;;5.82;2.47;;;;;;;21.80;37.14;100232.25;5129801;28;20284;-53
2022/10/07 11:17:06;;;;;;;6.80;2.97;;;;;;;21.82;36.40;100233.03;5129597;28;20214;-53
2022/10/07 11:19:38;;;;;;;2.70;2.33;;;;;;;21.84;36.29;100231.13;5129629;28;20198;-60
2022/10/07 11:22:14;;;;;;;4.57;2.67;;;;;;;21.85;36.18;100224.91;5129619;28;20190;-59
2022/10/07 11:24:49;;;;;;;10.25;2.95;;;;;;;21.85;36.75;100214.34;5129661;28;20559;-58
2022/10/07 11:27:20;;;;;;;2.70;2.50;;;;;;;21.97;36.25;100219.69;5129522;28;20289;-58
2022/10/07 11:29:56;;;;;;;4.80;2.55;;;;;;;22.03;36.71;100221.09;5129465;28;20245;-59
2022/10/07 11:32:31;;;;;;;5.40;2.45;;;;;;;21.97;36.64;100203.81;5129777;28;20586;-59
2022/10/07 11:35:06;;;;;;;2.70;2.50;;;;;;;22.00;36.66;100210.75;5129577;28;20258;-60
2022/10/07 11:37:38;;;;;;;2.78;2.20;;;;;;;22.09;36.75;100210.13;5129274;28;20217;-59
2022/10/07 11:40:07;;;;;;;2.95;2.67;;;;;;;22.13;36.83;100203.69;5129726;28;20579;-55
2022/10/07 11:42:39;;;;;;;2.58;2.38;;;;;;;22.17;36.76;100199.91;5129685;27;20281;-53